Time;durP1;ratioP1;P1;durP2;ratioP2;P2;SDS_P1;SDS_P2;PMS_P1;PMS_P2;Temp;Humidity;BMP_temperature;BMP_pressure;BME280_temperature;BME280_humidity;BME280_pressure;Samples;Min_cycle;Max_cycle;Signal;HPM_P1;HPM_P2
2023/01/29 00:00:40;;;;;;;22.75;13.38;;;2.70;99.90;;;;;;5052208;28;20100;-82
2023/01/29 00:03:06;;;;;;;21.88;12.07;;;2.70;99.90;;;;;;5053391;28;20044;-81
2023/01/29 00:05:33;;;;;;;20.83;12.43;;;2.70;99.90;;;;;;5052663;28;20044;-81
2023/01/29 00:07:59;;;;;;;22.02;12.65;;;2.70;99.90;;;;;;5052530;28;20095;-81
2023/01/29 00:10:24;;;;;;;21.52;13.00;;;3.20;99.90;;;;;;5052068;28;20392;-81
2023/01/29 00:12:50;;;;;;;21.77;11.95;;;2.70;99.90;;;;;;5053250;28;20132;-82
2023/01/29 00:15:17;;;;;;;24.95;13.73;;;2.70;99.90;;;;;;5053283;28;20044;-82
2023/01/29 00:17:43;;;;;;;22.02;12.90;;;2.70;99.90;;;;;;5052425;28;20084;-81
2023/01/29 00:20:09;;;;;;;23.90;12.53;;;2.60;99.90;;;;;;5053019;28;20481;-82
2023/01/29 00:22:35;;;;;;;20.38;11.38;;;2.60;99.90;;;;;;5051886;28;20279;-82
2023/01/29 00:25:01;;;;;;;21.85;13.05;;;2.60;99.90;;;;;;5054363;28;20037;-82
2023/01/29 00:27:26;;;;;;;23.70;13.07;;;2.60;99.90;;;;;;5056775;28;20045;-83
2023/01/29 00:32:36;;;;;;;22.50;13.07;;;2.60;99.90;;;;;;5057066;28;20052;-82
2023/01/29 00:35:02;;;;;;;21.30;12.13;;;2.70;99.90;;;;;;5056915;28;20048;-82
2023/01/29 00:37:28;;;;;;;21.33;12.57;;;2.70;99.90;;;;;;5055831;28;20084;-82
2023/01/29 00:39:54;;;;;;;23.42;12.95;;;2.70;99.90;;;;;;5055643;28;20737;-81
2023/01/29 00:45:04;;;;;;;21.33;12.90;;;2.70;99.90;;;;;;5055849;28;20088;-82
2023/01/29 00:47:29;;;;;;;23.60;11.98;;;2.70;99.90;;;;;;5056708;28;20041;-82
2023/01/29 00:49:55;;;;;;;22.90;12.73;;;2.70;99.90;;;;;;5055241;28;20544;-81
2023/01/29 00:52:24;;;;;;;26.58;13.85;;;2.70;99.90;;;;;;5056493;28;20045;-81
2023/01/29 00:54:51;;;;;;;23.67;13.20;;;2.70;99.90;;;;;;5055440;28;20158;-82
2023/01/29 00:57:17;;;;;;;;;;;2.80;99.90;;;;;;5055769;28;20052;-82
2023/01/29 00:59:42;;;;;;;22.27;12.85;;;1.70;99.90;;;;;;5056692;28;19936;-82
2023/01/29 01:04:52;;;;;;;20.33;12.43;;;2.80;99.90;;;;;;5055315;28;20480;-81
2023/01/29 01:07:18;;;;;;;21.25;12.35;;;2.80;99.90;;;;;;5055587;28;20052;-82
2023/01/29 01:12:49;;;;;;;22.48;13.15;;;2.90;99.90;;;;;;4978462;28;20058;-82
2023/01/29 01:15:16;;;;;;;21.08;13.05;;;2.80;99.90;;;;;;4978291;28;20054;-82
2023/01/29 01:17:42;;;;;;;20.75;12.77;;;2.80;99.90;;;;;;5013281;28;20417;-82
2023/01/29 01:20:08;;;;;;;19.92;11.70;;;2.80;99.90;;;;;;5055326;28;20048;-82
2023/01/29 01:22:34;;;;;;;25.05;13.10;;;2.80;99.90;;;;;;5038464;28;20579;-81
2023/01/29 01:25:00;;;;;;;20.92;11.43;;;2.90;99.90;;;;;;5056122;28;20139;-82
2023/01/29 01:27:26;;;;;;;21.38;11.55;;;2.80;99.90;;;;;;5054968;28;20134;-82
2023/01/29 01:29:51;;;;;;;21.35;12.27;;;2.80;99.90;;;;;;5055850;28;20049;-82
2023/01/29 01:32:17;;;;;;;23.33;12.38;;;2.80;99.90;;;;;;5056289;28;20503;-82
2023/01/29 01:34:44;;;;;;;21.73;11.85;;;2.80;99.90;;;;;;5056129;28;20127;-81
2023/01/29 01:37:10;;;;;;;21.00;13.30;;;2.80;99.90;;;;;;5054477;28;20044;-82
2023/01/29 01:39:35;;;;;;;20.23;11.73;;;2.80;99.90;;;;;;5055709;28;20453;-82
2023/01/29 01:42:01;;;;;;;18.23;11.57;;;2.80;99.90;;;;;;5054724;28;20045;-82
2023/01/29 01:45:03;;;;;;;17.92;11.15;;;2.80;99.90;;;;;;5054657;28;20492;-82
2023/01/29 01:47:30;;;;;;;20.65;11.98;;;2.90;99.90;;;;;;5055566;28;20056;-81
2023/01/29 01:50:01;;;;;;;21.60;12.27;;;2.80;99.90;;;;;;5054264;28;20057;-81
2023/01/29 01:52:30;;;;;;;18.15;11.05;;;2.80;99.90;;;;;;5055477;28;20037;-81
2023/01/29 01:54:56;;;;;;;20.65;11.75;;;2.90;99.90;;;;;;5054191;28;20079;-82
2023/01/29 01:57:24;;;;;;;19.65;11.50;;;3.30;99.90;;;;;;5055081;28;20136;-81
2023/01/29 01:59:56;;;;;;;19.92;12.02;;;2.90;99.90;;;;;;5055360;28;20076;-81
2023/01/29 02:10:43;;;;;;;18.88;11.88;;;2.80;99.90;;;;;;5054185;28;20136;-81
2023/01/29 02:13:11;;;;;;;19.15;11.10;;;2.80;99.90;;;;;;5054952;28;20481;-81
2023/01/29 02:15:40;;;;;;;18.55;11.48;;;2.90;99.90;;;;;;5054069;28;20049;-81
2023/01/29 02:18:07;;;;;;;20.77;12.02;;;2.90;99.90;;;;;;5054666;28;20555;-81
2023/01/29 02:20:34;;;;;;;20.98;11.88;;;2.90;99.90;;;;;;5055160;28;20045;-81
2023/01/29 02:23:22;;;;;;;23.50;12.53;;;2.90;99.90;;;;;;5053992;28;20087;-81
2023/01/29 02:26:06;;;;;;;22.60;11.90;;;2.90;99.90;;;;;;5053991;28;20392;-81
2023/01/29 02:28:56;;;;;;;18.40;11.27;;;2.90;99.90;;;;;;5054736;28;20049;-82
2023/01/29 02:31:39;;;;;;;23.45;11.95;;;2.90;99.90;;;;;;5037368;28;20098;-82
2023/01/29 02:34:31;;;;;;;23.67;12.48;;;2.90;99.90;;;;;;5037216;28;20102;-81
2023/01/29 02:37:08;;;;;;;19.92;11.82;;;4.00;99.90;;;;;;5054605;28;20551;-82
2023/01/29 02:39:51;;;;;;;20.13;11.13;;;2.90;99.90;;;;;;5053160;28;20045;-82
2023/01/29 02:42:52;;;;;;;19.33;11.43;;;2.90;99.90;;;;;;5054850;28;20048;-82
2023/01/29 02:45:37;;;;;;;24.55;12.40;;;2.90;99.90;;;;;;5050336;28;20064;-81
2023/01/29 02:48:03;;;;;;;20.08;12.25;;;2.90;99.90;;;;;;5053782;28;20103;-82
2023/01/29 02:50:43;;;;;;;21.15;11.13;;;2.90;99.90;;;;;;5054411;28;20052;-82
2023/01/29 02:53:20;;;;;;;20.08;12.07;;;2.90;99.90;;;;;;5053332;28;20041;-82
2023/01/29 02:56:02;;;;;;;19.77;11.47;;;2.90;99.90;;;;;;5054878;28;20044;-83
2023/01/29 02:58:33;;;;;;;19.33;11.82;;;2.90;99.90;;;;;;5054299;28;20278;-82
2023/01/29 03:01:10;;;;;;;19.50;11.75;;;2.90;99.90;;;;;;5053115;28;20045;-83
2023/01/29 03:03:41;;;;;;;23.40;12.83;;;2.90;99.90;;;;;;5052962;28;20091;-83
2023/01/29 03:06:29;;;;;;;26.45;12.40;;;2.90;99.90;;;;;;5054034;28;20276;-83
2023/01/29 03:09:06;;;;;;;22.98;12.68;;;2.90;99.90;;;;;;5052858;28;20057;-83
2023/01/29 03:11:40;;;;;;;;;;;2.80;99.90;;;;;;5053589;28;20053;-82
2023/01/29 03:14:19;;;;;;;22.85;12.85;;;2.90;99.90;;;;;;5053880;28;19920;-82
2023/01/29 03:16:50;;;;;;;21.15;11.88;;;2.90;99.90;;;;;;5053281;28;20041;-82
2023/01/29 03:19:40;;;;;;;23.98;13.10;;;2.80;99.90;;;;;;5053177;28;20043;-81
2023/01/29 03:22:09;;;;;;;21.63;11.95;;;2.90;99.90;;;;;;5053154;28;20099;-81
2023/01/29 03:33:03;;;;;;;19.75;12.40;;;2.80;99.90;;;;;;5052690;28;20041;-82
2023/01/29 03:35:35;;;;;;;20.85;12.23;;;2.80;99.90;;;;;;5052834;28;20059;-81
2023/01/29 03:38:11;;;;;;;21.70;12.45;;;2.80;99.90;;;;;;5053731;28;20055;-82
2023/01/29 03:40:57;;;;;;;25.95;13.30;;;2.80;99.90;;;;;;5037494;28;20485;-82
2023/01/29 03:43:47;;;;;;;24.73;13.30;;;2.80;99.90;;;;;;5052445;28;20093;-82
2023/01/29 03:46:27;;;;;;;23.02;13.25;;;2.80;99.90;;;;;;5053672;28;20064;-82
2023/01/29 03:49:07;;;;;;;20.92;13.10;;;2.80;99.90;;;;;;5052279;28;20049;-81
2023/01/29 03:51:41;;;;;;;23.55;12.70;;;2.80;99.90;;;;;;5053302;28;20559;-81
2023/01/29 03:54:25;;;;;;;26.05;13.38;;;2.80;99.90;;;;;;5053482;28;20060;-81
2023/01/29 03:57:20;;;;;;;22.52;13.32;;;2.80;99.90;;;;;;5052748;28;20400;-81
2023/01/29 04:00:00;;;;;;;25.77;13.95;;;2.80;99.90;;;;;;5053487;28;20132;-82
2023/01/29 04:02:33;;;;;;;22.90;13.75;;;2.90;99.90;;;;;;5057491;28;20087;-81
2023/01/29 04:05:10;;;;;;;23.52;13.75;;;3.40;99.90;;;;;;5058055;28;20060;-82
2023/01/29 04:07:38;;;;;;;23.17;12.77;;;2.90;99.90;;;;;;5056684;28;20388;-82
2023/01/29 04:10:13;;;;;;;25.65;13.82;;;2.90;99.90;;;;;;5057573;28;20284;-82
2023/01/29 04:12:47;;;;;;;24.23;13.93;;;2.90;99.90;;;;;;5057331;28;20052;-81
2023/01/29 04:15:15;;;;;;;23.23;13.85;;;2.90;99.90;;;;;;5057227;28;20045;-82
2023/01/29 04:17:46;;;;;;;26.77;14.68;;;2.90;99.90;;;;;;5056196;28;20037;-81
2023/01/29 04:20:12;;;;;;;21.90;13.52;;;2.90;99.90;;;;;;5057213;28;20374;-82
2023/01/29 04:22:42;;;;;;;27.00;14.15;;;2.90;99.90;;;;;;5057088;28;20037;-83
2023/01/29 04:25:14;;;;;;;24.67;14.55;;;3.80;99.90;;;;;;5057105;28;20562;-82
2023/01/29 04:27:47;;;;;;;24.67;14.35;;;2.90;99.90;;;;;;5056108;28;20049;-82
2023/01/29 04:30:33;;;;;;;22.88;13.75;;;2.90;99.90;;;;;;5056852;28;20488;-82
2023/01/29 04:33:12;;;;;;;24.70;14.52;;;2.90;99.90;;;;;;5055994;28;20041;-81
2023/01/29 04:35:58;;;;;;;23.33;13.55;;;2.90;99.90;;;;;;5057041;28;20084;-82
2023/01/29 04:38:27;;;;;;;23.83;13.10;;;2.90;99.90;;;;;;5056877;28;20087;-81
2023/01/29 04:41:02;;;;;;;27.38;13.80;;;2.90;99.90;;;;;;5055725;28;20412;-82
2023/01/29 04:43:33;;;;;;;23.70;13.52;;;2.90;99.90;;;;;;5056013;28;20070;-82
2023/01/29 04:46:20;;;;;;;25.23;13.45;;;2.90;99.90;;;;;;5056866;28;20103;-82
2023/01/29 04:48:55;;;;;;;24.45;13.95;;;3.00;99.90;;;;;;5055629;28;20061;-81
2023/01/29 04:51:42;;;;;;;20.08;12.85;;;3.00;99.90;;;;;;5056676;28;20060;-82
2023/01/29 04:54:46;;;;;;;24.42;15.07;;;3.00;99.90;;;;;;5055995;28;20037;-82
2023/01/29 04:57:17;;;;;;;22.25;13.65;;;3.00;99.90;;;;;;5017868;28;20053;-81
2023/01/29 04:59:55;;;;;;;23.98;14.40;;;3.00;99.90;;;;;;5055800;28;20041;-83
2023/01/29 05:02:23;;;;;;;25.35;14.82;;;3.00;99.90;;;;;;5055864;28;20068;-82
2023/01/29 05:04:49;;;;;;;24.27;14.50;;;3.30;99.90;;;;;;5056365;28;20056;-81
2023/01/29 05:07:18;;;;;;;23.00;13.77;;;3.00;99.90;;;;;;5055185;28;20427;-82
2023/01/29 05:09:46;;;;;;;24.83;14.60;;;3.10;99.90;;;;;;5055038;28;20041;-82
2023/01/29 05:12:14;;;;;;;23.95;14.18;;;3.00;99.90;;;;;;5055925;28;20120;-82
2023/01/29 05:14:43;;;;;;;23.88;13.95;;;3.00;99.90;;;;;;5055281;28;20440;-82
2023/01/29 05:17:14;;;;;;;22.77;13.98;;;3.10;99.90;;;;;;5055218;28;20396;-82
2023/01/29 05:19:40;;;;;;;24.15;14.60;;;3.10;99.90;;;;;;5055010;28;20415;-81
2023/01/29 05:22:09;;;;;;;26.65;14.13;;;4.50;99.90;;;;;;5055994;28;20091;-81
2023/01/29 05:24:36;;;;;;;24.08;15.23;;;3.10;99.90;;;;;;5054878;28;20080;-82
2023/01/29 05:29:47;;;;;;;25.25;14.20;;;3.10;99.90;;;;;;5055870;28;20139;-81
2023/01/29 05:32:13;;;;;;;25.73;14.00;;;3.10;99.90;;;;;;5054718;28;20072;-82
2023/01/29 05:34:39;;;;;;;23.80;15.77;;;3.10;99.90;;;;;;5054653;28;20103;-82
2023/01/29 05:37:05;;;;;;;22.83;14.07;;;3.10;99.90;;;;;;5055733;28;20287;-82
2023/01/29 05:39:30;;;;;;;24.60;14.23;;;3.20;99.90;;;;;;5054790;28;20131;-82
2023/01/29 05:41:56;;;;;;;24.42;14.90;;;3.10;99.90;;;;;;5055898;28;20094;-82
2023/01/29 05:44:21;;;;;;;22.90;15.27;;;3.20;99.90;;;;;;5054524;28;20040;-82
2023/01/29 05:46:48;;;;;;;25.75;15.00;;;3.10;99.90;;;;;;5054521;28;20392;-82
2023/01/29 05:49:16;;;;;;;26.23;16.02;;;3.10;99.90;;;;;;5055536;28;20106;-81
2023/01/29 05:51:42;;;;;;;23.27;14.52;;;3.10;99.90;;;;;;5055539;28;20132;-83
2023/01/29 05:54:11;;;;;;;26.05;15.45;;;3.20;99.90;;;;;;5054653;28;20444;-81
2023/01/29 05:56:37;;;;;;;28.05;15.57;;;3.20;99.90;;;;;;5055431;28;20092;-81
2023/01/29 05:59:02;;;;;;;26.77;15.55;;;3.20;99.90;;;;;;5055464;28;20080;-81
2023/01/29 06:01:28;;;;;;;23.73;15.40;;;3.20;99.90;;;;;;5055668;28;20507;-81
2023/01/29 06:03:54;;;;;;;23.67;14.57;;;3.20;99.90;;;;;;5054427;28;20047;-81
2023/01/29 06:06:19;;;;;;;26.67;15.18;;;3.20;99.90;;;;;;5055225;28;20477;-81
2023/01/29 06:08:46;;;;;;;25.02;15.23;;;3.20;99.90;;;;;;5054049;28;20041;-82
2023/01/29 06:11:13;;;;;;;26.55;15.75;;;3.20;99.90;;;;;;5054103;28;20045;-81
2023/01/29 06:13:39;;;;;;;24.65;15.82;;;3.20;99.90;;;;;;5055031;28;20037;-82
2023/01/29 06:16:05;;;;;;;26.30;16.60;;;3.20;99.90;;;;;;5037460;28;20067;-81
2023/01/29 06:18:31;;;;;;;24.80;15.85;;;;;;;;;;5055001;28;20052;-81
2023/01/29 06:21:02;;;;;;;24.63;15.65;;;3.20;99.90;;;;;;5053812;28;20195;-81
2023/01/29 06:23:28;;;;;;;24.98;15.52;;;3.20;99.90;;;;;;5053969;28;20041;-81
2023/01/29 06:26:09;;;;;;;26.17;15.93;;;3.20;99.90;;;;;;5055122;28;20436;-82
2023/01/29 06:28:34;;;;;;;24.33;15.57;;;3.20;99.90;;;;;;5053683;28;20118;-81
2023/01/29 06:31:05;;;;;;;26.52;15.88;;;3.20;99.90;;;;;;5054669;28;20134;-83
2023/01/29 06:33:31;;;;;;;24.55;15.52;;;3.20;99.90;;;;;;5054983;28;20472;-82
2023/01/29 06:36:03;;;;;;;27.88;16.83;;;3.20;99.90;;;;;;5055005;28;20077;-83
2023/01/29 06:38:29;;;;;;;23.67;16.00;;;3.20;99.90;;;;;;5054805;28;20053;-82
2023/01/29 06:40:55;;;;;;;25.95;15.40;;;3.50;99.90;;;;;;5053655;28;20084;-82
2023/01/29 06:43:22;;;;;;;26.83;16.30;;;3.10;99.90;;;;;;5053312;28;20103;-82
2023/01/29 06:45:53;;;;;;;26.50;16.25;;;3.10;99.90;;;;;;5053362;28;20088;-83
2023/01/29 06:48:19;;;;;;;26.73;16.67;;;3.10;99.90;;;;;;5054669;28;20075;-84
2023/01/29 06:50:45;;;;;;;26.33;16.55;;;3.10;99.90;;;;;;5036699;28;20094;-82
2023/01/29 06:53:11;;;;;;;26.08;16.73;;;3.10;99.90;;;;;;5036579;28;20049;-82
2023/01/29 06:55:37;;;;;;;23.45;14.95;;;3.10;99.90;;;;;;5053476;28;20493;-81
2023/01/29 06:58:05;;;;;;;23.98;15.80;;;3.10;99.90;;;;;;5054115;28;20051;-83
2023/01/29 07:00:31;;;;;;;27.30;16.50;;;3.10;99.90;;;;;;5054203;28;20045;-83
2023/01/29 07:02:57;;;;;;;29.55;17.80;;;3.10;99.90;;;;;;5053259;28;20041;-83
2023/01/29 07:05:22;;;;;;;25.67;15.07;;;3.10;99.90;;;;;;5054262;28;20120;-84
2023/01/29 07:07:48;;;;;;;27.02;16.63;;;3.10;99.90;;;;;;5052955;28;20076;-83
2023/01/29 07:10:14;;;;;;;24.75;15.23;;;3.10;99.90;;;;;;5053106;28;20114;-83
2023/01/29 07:12:40;;;;;;;26.10;16.50;;;3.10;99.90;;;;;;5054000;28;20041;-82
2023/01/29 07:15:06;;;;;;;24.30;15.82;;;3.10;99.90;;;;;;5053981;28;20044;-82
2023/01/29 07:17:31;;;;;;;25.63;16.17;;;3.10;99.90;;;;;;5053967;28;20557;-83
2023/01/29 07:19:57;;;;;;;24.52;16.08;;;3.10;99.90;;;;;;5052817;28;20048;-83
2023/01/29 07:22:22;;;;;;;25.58;16.08;;;3.10;99.90;;;;;;5052986;28;20153;-82
2023/01/29 07:24:48;;;;;;;29.05;16.75;;;3.10;99.90;;;;;;5053839;28;20037;-81
2023/01/29 07:27:14;;;;;;;27.05;17.60;;;3.10;99.90;;;;;;5052576;28;20041;-83
2023/01/29 07:29:39;;;;;;;25.35;16.70;;;3.10;99.90;;;;;;5054269;28;20124;-80
2023/01/29 07:32:06;;;;;;;27.55;16.58;;;3.10;99.90;;;;;;5052621;28;20108;-84
2023/01/29 07:34:32;;;;;;;;;;;3.10;99.90;;;;;;5053959;28;20136;-80
2023/01/29 07:36:58;;;;;;;26.35;16.48;;;3.10;99.90;;;;;;5053768;28;19960;-82
2023/01/29 07:39:23;;;;;;;25.13;15.93;;;3.10;99.90;;;;;;5052819;28;20076;-84
2023/01/29 07:41:49;;;;;;;28.45;17.40;;;3.10;99.90;;;;;;5052639;28;20048;-80
2023/01/29 07:44:15;;;;;;;26.52;16.00;;;3.20;99.90;;;;;;5054159;28;20072;-81
2023/01/29 07:46:40;;;;;;;28.00;16.50;;;3.60;99.90;;;;;;5053588;28;20045;-82
2023/01/29 07:49:06;;;;;;;28.52;17.23;;;3.10;99.90;;;;;;5053504;28;20087;-81
2023/01/29 07:51:31;;;;;;;28.55;17.10;;;3.10;99.90;;;;;;5052450;28;20049;-80
2023/01/29 07:53:57;;;;;;;28.17;16.42;;;3.00;99.90;;;;;;5052206;28;20053;-81
2023/01/29 07:56:23;;;;;;;28.20;16.05;;;3.00;99.90;;;;;;5053480;28;20171;-81
2023/01/29 07:58:48;;;;;;;25.83;17.27;;;3.00;99.90;;;;;;5053488;28;20124;-81
2023/01/29 08:01:14;;;;;;;24.65;15.45;;;3.00;99.90;;;;;;5052560;28;20455;-80
2023/01/29 08:03:39;;;;;;;25.33;15.82;;;3.00;99.90;;;;;;5052390;28;20063;-81
2023/01/29 08:06:05;;;;;;;29.25;16.65;;;3.10;99.90;;;;;;5053388;28;20134;-81
2023/01/29 08:08:31;;;;;;;25.73;15.93;;;3.10;99.90;;;;;;5052307;28;20051;-83
2023/01/29 08:11:01;;;;;;;24.70;15.68;;;3.10;99.90;;;;;;5052271;28;20037;-81
2023/01/29 08:13:27;;;;;;;27.83;16.45;;;3.10;99.90;;;;;;5053322;28;20049;-81
2023/01/29 08:15:52;;;;;;;28.40;17.48;;;3.10;99.90;;;;;;5053306;28;20552;-81
2023/01/29 08:18:18;;;;;;;29.73;16.15;;;3.10;99.90;;;;;;5053273;28;20448;-80
2023/01/29 08:20:44;;;;;;;29.90;16.98;;;3.10;99.90;;;;;;5052186;28;20132;-83
2023/01/29 08:23:13;;;;;;;27.95;17.35;;;3.10;99.90;;;;;;5052153;28;20041;-79
2023/01/29 08:25:39;;;;;;;26.20;15.50;;;3.10;99.90;;;;;;5052206;28;20033;-83
2023/01/29 08:28:05;;;;;;;26.77;16.42;;;3.10;99.90;;;;;;5052973;28;20102;-81
2023/01/29 08:30:33;;;;;;;25.67;15.75;;;3.10;99.90;;;;;;5035022;28;20103;-82
2023/01/29 08:32:58;;;;;;;27.13;16.25;;;3.80;99.90;;;;;;5034358;28;20133;-83
2023/01/29 08:35:25;;;;;;;29.27;16.90;;;3.10;99.90;;;;;;5052578;28;20084;-82
2023/01/29 08:37:57;;;;;;;28.25;15.60;;;3.10;99.90;;;;;;5035591;28;20056;-83
2023/01/29 08:40:22;;;;;;;26.88;16.52;;;3.10;99.90;;;;;;5051690;28;20051;-82
2023/01/29 08:42:48;;;;;;;27.25;16.50;;;3.10;99.90;;;;;;5052782;28;20514;-83
2023/01/29 08:45:14;;;;;;;26.80;15.73;;;3.10;99.90;;;;;;5052779;28;20094;-82
2023/01/29 08:47:48;;;;;;;25.92;15.05;;;3.10;99.90;;;;;;5056587;28;20508;-83
2023/01/29 08:50:15;;;;;;;27.65;16.45;;;3.10;99.90;;;;;;5056771;28;20044;-82
2023/01/29 08:52:41;;;;;;;27.17;15.82;;;3.10;99.90;;;;;;5056593;28;20041;-83
2023/01/29 08:55:07;;;;;;;26.13;16.40;;;3.10;99.90;;;;;;5056594;28;20049;-83
2023/01/29 08:57:33;;;;;;;26.75;15.75;;;3.10;99.90;;;;;;5056563;28;20037;-82
2023/01/29 08:59:58;;;;;;;24.98;16.10;;;3.10;99.90;;;;;;5056808;28;20052;-83
2023/01/29 09:02:24;;;;;;;29.38;17.85;;;3.20;99.90;;;;;;5056484;28;20435;-83
2023/01/29 09:04:50;;;;;;;28.85;17.35;;;4.20;99.90;;;;;;5055466;28;20049;-82
2023/01/29 09:07:15;;;;;;;32.13;17.63;;;3.10;99.90;;;;;;5056129;28;20407;-83
2023/01/29 09:09:41;;;;;;;26.33;16.92;;;3.10;99.90;;;;;;5056243;28;20072;-82
2023/01/29 09:12:06;;;;;;;29.95;17.40;;;3.10;99.90;;;;;;5056260;28;20041;-83
2023/01/29 09:14:32;;;;;;;28.05;15.98;;;3.20;99.90;;;;;;5055264;28;20123;-83
2023/01/29 09:16:57;;;;;;;27.50;16.25;;;3.10;99.90;;;;;;5055309;28;20041;-82
2023/01/29 09:19:23;;;;;;;29.75;17.15;;;3.20;99.90;;;;;;5055468;28;20037;-82
2023/01/29 09:21:49;;;;;;;26.15;15.55;;;3.20;99.90;;;;;;5055530;28;20049;-83
2023/01/29 09:24:15;;;;;;;24.65;15.63;;;3.20;99.90;;;;;;5055504;28;20421;-83
2023/01/29 09:26:40;;;;;;;25.42;16.30;;;3.50;99.90;;;;;;5038420;28;20052;-83
2023/01/29 09:29:08;;;;;;;28.08;16.65;;;3.30;99.90;;;;;;5055894;28;20048;-83
2023/01/29 09:31:34;;;;;;;28.60;16.55;;;3.30;99.90;;;;;;5055949;28;20080;-83
2023/01/29 09:33:59;;;;;;;31.02;17.52;;;3.30;99.90;;;;;;5055766;28;20275;-82
2023/01/29 09:36:25;;;;;;;31.95;17.60;;;3.30;99.90;;;;;;5055857;28;20493;-83
2023/01/29 09:38:50;;;;;;;26.65;17.02;;;3.40;99.90;;;;;;5055806;28;20045;-83
2023/01/29 09:41:37;;;;;;;31.52;17.83;;;5.00;99.90;;;;;;5055605;28;20136;-83
2023/01/29 09:44:14;;;;;;;26.50;16.77;;;3.40;99.90;;;;;;5055179;28;20057;-83
2023/01/29 09:46:43;;;;;;;24.42;16.42;;;3.50;99.90;;;;;;5055922;28;20053;-83
2023/01/29 09:49:17;;;;;;;27.92;17.88;;;3.50;99.90;;;;;;5055149;28;20488;-82
2023/01/29 09:51:49;;;;;;;30.50;17.30;;;3.50;99.90;;;;;;5054465;28;20057;-83
2023/01/29 09:54:29;;;;;;;27.05;16.17;;;3.60;99.90;;;;;;5054388;28;20576;-83
2023/01/29 09:56:56;;;;;;;27.65;16.52;;;3.60;99.90;;;;;;5054310;28;20493;-83
2023/01/29 09:59:25;;;;;;;27.08;16.60;;;3.70;99.90;;;;;;5054542;28;20048;-82
2023/01/29 10:02:15;;;;;;;30.38;17.50;;;3.70;99.90;;;;;;5055318;28;20074;-83
2023/01/29 10:05:18;;;;;;;28.33;16.65;;;3.70;99.90;;;;;;5055383;28;20449;-82
2023/01/29 10:08:03;;;;;;;25.80;16.42;;;3.80;99.90;;;;;;5055197;28;20049;-83
2023/01/29 10:10:47;;;;;;;30.73;17.27;;;3.90;99.90;;;;;;5055169;28;20400;-83
2023/01/29 10:13:37;;;;;;;26.95;16.77;;;4.00;99.90;;;;;;5055064;28;20049;-83
2023/01/29 10:16:24;;;;;;;26.45;16.52;;;4.00;99.90;;;;;;5054219;28;20037;-83
2023/01/29 10:19:17;;;;;;;27.13;17.23;;;4.10;99.90;;;;;;5037405;28;20436;-82
2023/01/29 10:22:18;;;;;;;31.60;17.00;;;4.10;99.90;;;;;;5054994;28;20045;-83
2023/01/29 10:24:57;;;;;;;24.80;15.82;;;4.20;99.90;;;;;;5001690;28;20067;-83
2023/01/29 10:27:30;;;;;;;24.75;16.08;;;4.30;99.90;;;;;;5053899;28;20472;-82
2023/01/29 10:29:57;;;;;;;28.17;16.92;;;5.20;99.90;;;;;;5055381;28;20049;-83
2023/01/29 10:32:24;;;;;;;27.63;17.77;;;4.30;99.90;;;;;;5053773;28;20052;-83
2023/01/29 10:34:59;;;;;;;28.60;16.65;;;4.70;99.90;;;;;;5053592;28;20103;-82
2023/01/29 10:37:40;;;;;;;26.60;16.33;;;4.30;99.90;;;;;;5054760;28;20143;-83
2023/01/29 10:40:19;;;;;;;28.08;16.70;;;4.40;99.90;;;;;;5053935;28;20052;-83
2023/01/29 10:42:50;;;;;;;28.15;17.02;;;4.40;99.90;;;;;;5054611;28;20051;-82
2023/01/29 10:45:38;;;;;;;25.27;15.93;;;4.40;99.90;;;;;;5053433;28;20543;-83
2023/01/29 10:48:26;;;;;;;27.02;17.05;;;4.30;99.90;;;;;;5053097;28;20389;-82
2023/01/29 10:51:13;;;;;;;28.17;16.55;;;4.30;99.90;;;;;;5054461;28;20552;-83
2023/01/29 10:54:13;;;;;;;27.20;16.80;;;4.40;99.90;;;;;;5054558;28;20049;-82
2023/01/29 10:57:00;;;;;;;23.25;15.77;;;4.40;99.90;;;;;;5053082;28;20076;-82
2023/01/29 10:59:51;;;;;;;24.83;16.42;;;4.40;99.90;;;;;;5040234;28;20075;-86
2023/01/29 11:02:20;;;;;;;23.52;15.57;;;4.40;99.90;;;;;;5053547;28;20419;-83
2023/01/29 11:04:46;;;;;;;28.50;17.17;;;4.50;99.90;;;;;;5053060;28;20091;-80
2023/01/29 11:07:15;;;;;;;25.80;15.33;;;4.50;99.90;;;;;;5054288;28;20072;-83
2023/01/29 11:09:59;;;;;;;30.75;17.65;;;4.50;99.90;;;;;;5053729;28;20045;-81
2023/01/29 11:12:30;;;;;;;28.20;16.50;;;4.50;99.90;;;;;;5052790;28;20142;-83
2023/01/29 11:15:03;;;;;;;25.83;16.55;;;4.60;99.90;;;;;;5053001;28;20056;-83
2023/01/29 11:17:28;;;;;;;29.75;17.15;;;4.60;99.90;;;;;;5052884;28;20084;-86
2023/01/29 11:19:54;;;;;;;30.08;17.98;;;4.60;99.90;;;;;;5053025;28;20126;-82
2023/01/29 11:22:25;;;;;;;26.73;16.63;;;4.70;99.90;;;;;;5054088;28;20094;-80
2023/01/29 11:25:18;;;;;;;25.00;15.75;;;4.70;99.90;;;;;;5053010;28;20392;-82
2023/01/29 11:27:48;;;;;;;25.17;16.42;;;4.70;99.90;;;;;;5052827;28;20048;-81
2023/01/29 11:30:26;;;;;;;26.15;16.02;;;4.80;99.90;;;;;;5053474;28;20512;-80
2023/01/29 11:33:20;;;;;;;25.58;16.25;;;4.80;99.90;;;;;;5052498;28;20052;-81
2023/01/29 11:35:46;;;;;;;27.02;16.15;;;4.80;99.90;;;;;;5045716;28;20061;-83
2023/01/29 11:38:25;;;;;;;28.63;16.92;;;4.80;99.90;;;;;;5052792;28;20378;-85
2023/01/29 11:40:52;;;;;;;23.67;15.07;;;4.90;99.90;;;;;;5052291;28;20492;-85
2023/01/29 11:43:31;;;;;;;29.57;16.17;;;4.90;99.90;;;;;;5053552;28;20102;-85
2023/01/29 11:46:01;;;;;;;26.92;15.32;;;4.90;99.90;;;;;;5053597;28;20287;-86
2023/01/29 11:48:42;;;;;;;26.05;16.33;;;4.90;99.90;;;;;;5052578;28;20116;-82
2023/01/29 11:51:18;;;;;;;24.02;15.45;;;5.40;99.90;;;;;;5036389;28;20144;-90
2023/01/29 11:53:51;;;;;;;24.42;14.82;;;4.70;99.90;;;;;;5052825;28;20431;-84
2023/01/29 11:56:29;;;;;;;23.67;14.85;;;4.80;99.90;;;;;;5053544;28;20056;-83
2023/01/29 11:58:56;;;;;;;;;;;4.80;99.90;;;;;;5053874;28;20045;-83
2023/01/29 12:01:37;;;;;;;28.17;14.47;;;4.80;99.90;;;;;;5053484;28;19967;-81
2023/01/29 12:04:12;;;;;;;23.13;15.38;;;4.70;99.90;;;;;;5053520;28;20044;-83
2023/01/29 12:06:43;;;;;;;28.20;15.63;;;4.80;99.90;;;;;;5053718;28;20041;-84
2023/01/29 12:09:15;;;;;;;25.33;16.00;;;4.70;99.90;;;;;;5053491;28;20102;-83
2023/01/29 12:11:40;;;;;;;28.48;16.83;;;4.70;99.90;;;;;;5052416;28;20052;-83
2023/01/29 12:14:27;;;;;;;27.70;16.73;;;4.70;99.90;;;;;;5054251;28;20048;-83
2023/01/29 12:17:05;;;;;;;29.52;17.00;;;4.60;99.90;;;;;;5052616;28;20049;-82
2023/01/29 12:19:42;;;;;;;27.45;16.65;;;4.60;99.90;;;;;;5052442;28;20115;-82
2023/01/29 12:22:45;;;;;;;27.60;16.38;;;4.60;99.90;;;;;;5038926;28;20052;-83
2023/01/29 12:25:38;;;;;;;25.73;15.70;;;4.60;99.90;;;;;;5001876;28;20061;-84
2023/01/29 12:28:23;;;;;;;26.48;15.95;;;4.60;99.90;;;;;;5057167;28;20124;-83
2023/01/29 12:31:04;;;;;;;27.85;16.80;;;4.50;99.90;;;;;;5057582;28;20044;-84
2023/01/29 12:33:47;;;;;;;29.02;17.67;;;4.50;99.90;;;;;;5055900;28;20052;-83
2023/01/29 12:36:51;;;;;;;30.05;17.05;;;4.50;99.90;;;;;;5057206;28;20060;-83
2023/01/29 12:39:18;;;;;;;27.17;17.02;;;4.50;99.90;;;;;;5057028;28;20136;-83
2023/01/29 12:41:50;;;;;;;;;;;4.40;99.90;;;;;;5057302;28;20045;-84
2023/01/29 12:44:41;;;;;;;30.48;17.50;;;4.40;99.90;;;;;;5057134;28;19986;-83
2023/01/29 12:47:16;;;;;;;28.42;17.08;;;4.40;99.90;;;;;;5056820;28;20459;-83
2023/01/29 12:49:46;;;;;;;24.98;16.00;;;4.50;99.90;;;;;;5056187;28;20408;-83
2023/01/29 12:52:22;;;;;;;27.30;16.98;;;4.60;99.90;;;;;;5055563;28;20044;-84
2023/01/29 12:54:54;;;;;;;30.55;17.38;;;4.50;99.90;;;;;;5056728;28;20127;-83
2023/01/29 12:57:31;;;;;;;31.33;17.88;;;4.50;99.90;;;;;;5056747;28;20037;-84
2023/01/29 13:00:12;;;;;;;31.48;18.63;;;4.50;99.90;;;;;;5056510;28;20450;-83
2023/01/29 13:02:48;;;;;;;29.30;17.05;;;4.50;99.90;;;;;;5056539;28;20397;-83
2023/01/29 13:05:33;;;;;;;30.25;18.17;;;4.40;99.90;;;;;;5056753;28;20098;-83
2023/01/29 13:08:17;;;;;;;31.95;18.85;;;4.50;99.90;;;;;;5038530;28;20099;-82
2023/01/29 13:10:49;;;;;;;31.05;18.85;;;4.40;99.90;;;;;;5056863;28;20041;-83
2023/01/29 13:13:33;;;;;;;32.50;18.75;;;4.40;99.90;;;;;;5055577;28;20455;-83
2023/01/29 13:16:00;;;;;;;29.70;17.15;;;4.40;99.90;;;;;;5056357;28;20110;-83
2023/01/29 13:18:45;;;;;;;30.88;18.85;;;4.40;99.90;;;;;;5055218;28;20522;-83
2023/01/29 13:21:35;;;;;;;34.67;19.98;;;4.30;99.90;;;;;;5055887;28;20550;-82
2023/01/29 13:24:11;;;;;;;34.60;18.65;;;4.30;99.90;;;;;;5043551;28;20100;-83
2023/01/29 13:26:39;;;;;;;32.95;19.20;;;4.30;99.90;;;;;;5056086;28;20099;-83
2023/01/29 13:29:04;;;;;;;33.90;19.02;;;4.20;99.90;;;;;;5054942;28;20049;-83
2023/01/29 13:31:34;;;;;;;34.50;19.65;;;4.20;99.90;;;;;;5037762;28;20107;-84
2023/01/29 13:34:14;;;;;;;29.52;18.33;;;4.20;99.90;;;;;;5054858;28;20045;-83